createdAt,value
2019-01-04T00:00:35.539Z,4.73
2019-01-04T00:01:35.776Z,4.75
2019-01-04T00:02:35.621Z,4.74
2019-01-04T00:03:35.937Z,4.75
2019-01-04T00:04:47.448Z,4.75
2019-01-04T00:05:35.681Z,4.74
2019-01-04T00:06:35.687Z,4.75
2019-01-04T00:07:35.697Z,4.76
2019-01-04T00:08:35.743Z,4.76
2019-01-04T00:09:35.912Z,4.74
2019-01-04T00:10:36.080Z,4.74
2019-01-04T00:11:35.747Z,4.74
2019-01-04T00:12:35.756Z,4.72
2019-01-04T00:13:35.511Z,4.71
2019-01-04T00:14:35.723Z,4.72
2019-01-04T00:15:35.532Z,4.72
2019-01-04T00:16:35.757Z,4.72
2019-01-04T00:17:35.578Z,4.72
2019-01-04T00:18:35.695Z,4.72
2019-01-04T00:19:35.577Z,4.69
2019-01-04T00:20:35.479Z,4.68
2019-01-04T00:21:35.564Z,4.68
2019-01-04T00:22:35.499Z,4.69
2019-01-04T00:23:35.596Z,4.68
2019-01-04T00:24:35.615Z,4.7
2019-01-04T00:25:35.488Z,4.69
2019-01-04T00:26:35.594Z,4.7
2019-01-04T00:27:35.598Z,4.7
2019-01-04T00:28:35.491Z,4.69
2019-01-04T00:29:35.542Z,4.69
2019-01-04T00:30:35.454Z,4.7
2019-01-04T00:31:35.626Z,4.7
2019-01-04T00:32:35.667Z,4.71
2019-01-04T00:33:35.592Z,4.7
2019-01-04T00:34:35.477Z,4.7
2019-01-04T00:35:35.483Z,4.7
2019-01-04T00:36:35.510Z,4.7
2019-01-04T00:37:35.502Z,4.69
2019-01-04T00:38:35.797Z,4.68
2019-01-04T00:39:35.665Z,4.66
2019-01-04T00:40:35.541Z,4.65
2019-01-04T00:41:35.526Z,4.64
2019-01-04T00:42:35.499Z,4.66
2019-01-04T00:43:35.710Z,4.66
2019-01-04T00:44:35.520Z,4.66
2019-01-04T00:45:35.825Z,4.65
2019-01-04T00:46:35.527Z,4.66
2019-01-04T00:47:35.772Z,4.65
2019-01-04T00:48:35.697Z,4.65
2019-01-04T00:49:35.726Z,4.64
2019-01-04T00:50:35.663Z,4.65
2019-01-04T00:51:35.455Z,4.65
2019-01-04T00:52:35.593Z,4.65
2019-01-04T00:53:35.483Z,4.65
2019-01-04T00:54:35.572Z,4.65
2019-01-04T00:55:35.472Z,4.63
2019-01-04T00:56:35.571Z,4.64
2019-01-04T00:57:35.926Z,4.63
2019-01-04T00:58:35.519Z,4.63
2019-01-04T00:59:35.774Z,4.63
2019-01-04T01:00:35.960Z,4.65
2019-01-04T01:01:35.598Z,4.67
2019-01-04T01:02:35.658Z,4.65
2019-01-04T01:03:35.459Z,4.65
2019-01-04T01:04:35.869Z,4.65
2019-01-04T01:05:35.872Z,4.64
2019-01-04T01:06:35.692Z,4.62
2019-01-04T01:07:35.817Z,4.65
2019-01-04T01:08:35.813Z,4.65
2019-01-04T01:09:35.563Z,4.64
2019-01-04T01:10:35.511Z,4.63
2019-01-04T01:11:35.640Z,4.63
2019-01-04T01:12:35.562Z,4.63
2019-01-04T01:13:35.578Z,4.63
2019-01-04T01:14:35.523Z,4.63
2019-01-04T01:15:35.544Z,4.65
2019-01-04T01:16:35.647Z,4.64
2019-01-04T01:17:35.733Z,4.63
2019-01-04T01:18:35.708Z,4.61
2019-01-04T01:19:35.712Z,4.6
2019-01-04T01:20:35.417Z,4.6
2019-01-04T01:21:35.479Z,4.6
2019-01-04T01:22:35.446Z,4.61
2019-01-04T01:23:35.467Z,4.61
2019-01-04T01:24:35.508Z,4.62
2019-01-04T01:25:35.732Z,4.61
2019-01-04T01:26:35.493Z,4.6
2019-01-04T01:27:35.823Z,4.62
2019-01-04T01:28:35.639Z,4.61
2019-01-04T01:29:35.511Z,4.61
2019-01-04T01:30:35.522Z,4.62
2019-01-04T01:31:35.660Z,4.61
2019-01-04T01:32:35.578Z,4.6
2019-01-04T01:33:35.404Z,4.6
2019-01-04T01:34:35.569Z,4.6
2019-01-04T01:35:35.482Z,4.59
2019-01-04T01:36:35.379Z,4.58
2019-01-04T01:37:35.696Z,4.58
2019-01-04T01:38:35.650Z,4.6
2019-01-04T01:39:35.735Z,4.57
2019-01-04T01:40:35.769Z,4.56
2019-01-04T01:41:35.566Z,4.56
2019-01-04T01:42:35.591Z,4.57
2019-01-04T01:43:35.410Z,4.54
2019-01-04T01:44:35.616Z,4.54
2019-01-04T01:45:35.406Z,4.54
2019-01-04T01:46:35.708Z,4.53
2019-01-04T01:47:35.593Z,4.53
2019-01-04T01:48:35.369Z,4.53
2019-01-04T01:49:35.465Z,4.53
2019-01-04T01:50:35.432Z,4.52
2019-01-04T01:51:35.537Z,4.53
2019-01-04T01:52:35.405Z,4.53
2019-01-04T01:53:35.397Z,4.52
2019-01-04T01:54:35.413Z,4.52
2019-01-04T01:55:35.496Z,4.52
2019-01-04T01:56:35.556Z,4.52
2019-01-04T01:57:35.580Z,4.52
2019-01-04T01:58:35.590Z,4.53
2019-01-04T01:59:36.231Z,4.52
2019-01-04T02:00:35.418Z,4.53
2019-01-04T02:01:35.405Z,4.52
2019-01-04T02:02:35.376Z,4.51
2019-01-04T02:03:35.381Z,4.5
2019-01-04T02:04:35.545Z,4.5
2019-01-04T02:05:35.569Z,4.49
2019-01-04T02:06:35.467Z,4.48
2019-01-04T02:07:35.377Z,4.47
2019-01-04T02:08:35.805Z,4.48
2019-01-04T02:09:35.446Z,4.48
2019-01-04T02:10:35.325Z,4.5
2019-01-04T02:11:35.419Z,4.49
2019-01-04T02:12:35.753Z,4.48
2019-01-04T02:13:35.350Z,4.46
2019-01-04T02:14:35.375Z,4.46
2019-01-04T02:15:35.589Z,4.48
2019-01-04T02:16:35.372Z,4.49
2019-01-04T02:17:35.399Z,4.49
2019-01-04T02:18:35.449Z,4.48
2019-01-04T02:19:35.339Z,4.48
2019-01-04T02:20:35.396Z,4.49
2019-01-04T02:21:35.474Z,4.49
2019-01-04T02:22:35.684Z,4.49
2019-01-04T02:23:36.170Z,4.49
2019-01-04T02:24:35.513Z,4.5
2019-01-04T02:25:35.503Z,4.52
2019-01-04T02:26:35.508Z,4.51
2019-01-04T02:27:35.482Z,4.51
2019-01-04T02:28:35.576Z,4.51
2019-01-04T02:29:35.556Z,4.51
2019-01-04T02:30:35.370Z,4.52
2019-01-04T02:31:36.620Z,4.52
2019-01-04T02:32:35.416Z,4.53
2019-01-04T02:33:35.524Z,4.52
2019-01-04T02:34:35.312Z,4.53
2019-01-04T02:35:35.635Z,4.54
2019-01-04T02:36:35.573Z,4.54
2019-01-04T02:37:36.201Z,4.54
2019-01-04T02:38:35.704Z,4.55
2019-01-04T02:39:35.633Z,4.54
2019-01-04T02:40:35.492Z,4.56
2019-01-04T02:41:35.479Z,4.55
2019-01-04T02:42:35.443Z,4.56
2019-01-04T02:43:35.707Z,4.55
2019-01-04T02:44:35.279Z,4.54
2019-01-04T02:45:35.309Z,4.54
2019-01-04T02:46:35.310Z,4.56
2019-01-04T02:47:35.475Z,4.55
2019-01-04T02:48:35.290Z,4.55
2019-01-04T02:49:35.283Z,4.54
2019-01-04T02:50:35.325Z,4.56
2019-01-04T02:51:35.468Z,4.55
2019-01-04T02:52:35.329Z,4.57
2019-01-04T02:53:35.379Z,4.57
2019-01-04T02:54:35.287Z,4.56
2019-01-04T02:55:35.531Z,4.55
2019-01-04T02:56:35.526Z,4.54
2019-01-04T02:57:35.563Z,4.55
2019-01-04T02:58:35.276Z,4.54
2019-01-04T02:59:35.480Z,4.53
2019-01-04T03:00:35.342Z,4.53
2019-01-04T03:01:35.321Z,4.53
2019-01-04T03:02:35.686Z,4.53
2019-01-04T03:03:35.445Z,4.54
2019-01-04T03:04:35.485Z,4.54
2019-01-04T03:05:35.417Z,4.55
2019-01-04T03:06:35.252Z,4.54
2019-01-04T03:07:35.613Z,4.54
2019-01-04T03:08:35.554Z,4.52
2019-01-04T03:09:35.500Z,4.54
2019-01-04T03:10:35.467Z,4.53
2019-01-04T03:11:36.114Z,4.52
2019-01-04T03:12:35.507Z,4.5
2019-01-04T03:13:35.471Z,4.5
2019-01-04T03:14:35.479Z,4.52
2019-01-04T03:15:35.247Z,4.55
2019-01-04T03:16:35.525Z,4.55
2019-01-04T03:17:35.506Z,4.55
2019-01-04T03:18:35.374Z,4.55
2019-01-04T03:19:35.279Z,4.54
2019-01-04T03:20:35.273Z,4.54
2019-01-04T03:21:35.413Z,4.54
2019-01-04T03:22:36.090Z,4.53
2019-01-04T03:23:35.486Z,4.53
2019-01-04T03:24:36.093Z,4.53
2019-01-04T03:25:35.399Z,4.53
2019-01-04T03:26:35.276Z,4.55
2019-01-04T03:27:35.451Z,4.54
2019-01-04T03:28:35.292Z,4.55
2019-01-04T03:29:35.503Z,4.55
2019-01-04T03:30:35.410Z,4.55
2019-01-04T03:31:35.701Z,4.55
2019-01-04T03:32:35.256Z,4.57
2019-01-04T03:33:35.391Z,4.55
2019-01-04T03:34:35.298Z,4.55
2019-01-04T03:35:35.558Z,4.55
2019-01-04T03:36:35.415Z,4.55
2019-01-04T03:37:35.522Z,4.55
2019-01-04T03:38:35.238Z,4.57
2019-01-04T03:39:35.262Z,4.55
2019-01-04T03:40:35.220Z,4.55
2019-01-04T03:41:35.537Z,4.54
2019-01-04T03:42:35.625Z,4.55
2019-01-04T03:43:35.208Z,4.54
2019-01-04T03:44:35.491Z,4.53
2019-01-04T03:45:35.274Z,4.52
2019-01-04T03:46:35.556Z,4.52
2019-01-04T03:47:35.282Z,4.52
2019-01-04T03:48:35.304Z,4.52
2019-01-04T03:49:35.333Z,4.51
2019-01-04T03:50:35.231Z,4.51
2019-01-04T03:51:35.232Z,4.53
2019-01-04T03:52:35.236Z,4.54
2019-01-04T03:53:35.373Z,4.54
2019-01-04T03:54:35.267Z,4.55
2019-01-04T03:55:35.354Z,4.57
2019-01-04T03:56:35.245Z,4.57
2019-01-04T03:57:35.223Z,4.57
2019-01-04T03:58:35.210Z,4.56
2019-01-04T03:59:35.225Z,4.57
2019-01-04T04:00:35.215Z,4.56
2019-01-04T04:01:35.238Z,4.58
2019-01-04T04:02:35.250Z,4.56
2019-01-04T04:03:35.245Z,4.55
2019-01-04T04:04:35.194Z,4.53
2019-01-04T04:05:35.194Z,4.49
2019-01-04T04:06:35.201Z,4.5
2019-01-04T04:07:35.400Z,4.5
2019-01-04T04:08:35.451Z,4.51
2019-01-04T04:09:35.202Z,4.51
2019-01-04T04:10:35.196Z,4.49
2019-01-04T04:11:35.417Z,4.51
2019-01-04T04:12:35.198Z,4.5
2019-01-04T04:13:35.549Z,4.5
2019-01-04T04:14:35.333Z,4.5
2019-01-04T04:15:35.284Z,4.49
2019-01-04T04:16:35.434Z,4.49
2019-01-04T04:17:35.384Z,4.5
2019-01-04T04:18:35.513Z,4.5
2019-01-04T04:19:36.009Z,4.5
2019-01-04T04:20:35.511Z,4.51
2019-01-04T04:21:35.395Z,4.51
2019-01-04T04:22:35.232Z,4.51
2019-01-04T04:23:35.435Z,4.52
2019-01-04T04:24:35.153Z,4.52
2019-01-04T04:25:35.182Z,4.52
2019-01-04T04:26:35.497Z,4.53
2019-01-04T04:27:35.355Z,4.53
2019-01-04T04:28:35.213Z,4.53
2019-01-04T04:29:35.158Z,4.53
2019-01-04T04:30:35.188Z,4.53
2019-01-04T04:31:35.177Z,4.53
2019-01-04T04:32:35.658Z,4.54
2019-01-04T04:33:35.154Z,4.54
2019-01-04T04:34:35.195Z,4.54
2019-01-04T04:35:35.282Z,4.54
2019-01-04T04:36:35.169Z,4.53
2019-01-04T04:37:35.510Z,4.54
2019-01-04T04:38:35.487Z,4.54
2019-01-04T04:39:35.318Z,4.56
2019-01-04T04:40:35.308Z,4.56
2019-01-04T04:41:35.207Z,4.57
2019-01-04T04:42:35.214Z,4.55
2019-01-04T04:43:35.174Z,4.56
2019-01-04T04:44:35.267Z,4.54
2019-01-04T04:45:35.278Z,4.52
2019-01-04T04:46:35.774Z,4.51
2019-01-04T04:47:35.669Z,4.51
2019-01-04T04:48:35.543Z,4.51
2019-01-04T04:49:35.318Z,4.52
2019-01-04T04:50:35.401Z,4.53
2019-01-04T04:51:35.993Z,4.53
2019-01-04T04:52:35.936Z,4.54
2019-01-04T04:53:36.351Z,4.54
2019-01-04T04:54:35.302Z,4.53
2019-01-04T04:55:35.315Z,4.53
2019-01-04T04:56:35.198Z,4.54
2019-01-04T04:57:35.314Z,4.55
2019-01-04T04:58:35.249Z,4.53
2019-01-04T04:59:35.158Z,4.55
2019-01-04T05:00:35.361Z,4.57
2019-01-04T05:01:35.451Z,4.58
2019-01-04T05:02:35.412Z,4.58
2019-01-04T05:03:35.152Z,4.58
2019-01-04T05:04:35.223Z,4.59
2019-01-04T05:05:35.270Z,4.59
2019-01-04T05:06:35.200Z,4.6
2019-01-04T05:07:35.585Z,4.6
2019-01-04T05:08:35.302Z,4.62
2019-01-04T05:09:35.203Z,4.62
2019-01-04T05:10:35.093Z,4.62
2019-01-04T05:11:35.654Z,4.62
2019-01-04T05:12:35.111Z,4.63
2019-01-04T05:13:35.319Z,4.63
2019-01-04T05:14:35.286Z,4.61
2019-01-04T05:15:35.274Z,4.6
2019-01-04T05:16:35.140Z,4.59
2019-01-04T05:17:35.451Z,4.59
2019-01-04T05:18:35.257Z,4.6
2019-01-04T05:19:35.267Z,4.61
2019-01-04T05:20:35.341Z,4.61
2019-01-04T05:21:35.080Z,4.62
2019-01-04T05:22:35.134Z,4.61
2019-01-04T05:23:35.534Z,4.6
2019-01-04T05:24:35.235Z,4.6
2019-01-04T05:25:35.054Z,4.59
2019-01-04T05:26:35.338Z,4.61
2019-01-04T05:27:35.580Z,4.62
2019-01-04T05:28:35.198Z,4.61
2019-01-04T05:29:35.062Z,4.61
2019-01-04T05:30:35.293Z,4.61
2019-01-04T05:31:35.405Z,4.62
2019-01-04T05:32:35.127Z,4.61
2019-01-04T05:33:35.115Z,4.59
2019-01-04T05:34:35.132Z,4.61
2019-01-04T05:35:35.042Z,4.62
2019-01-04T05:36:35.195Z,4.61
2019-01-04T05:37:35.154Z,4.62
2019-01-04T05:38:35.095Z,4.63
2019-01-04T05:39:35.125Z,4.63
2019-01-04T05:40:35.061Z,4.64
2019-01-04T05:41:35.181Z,4.64
2019-01-04T05:42:35.090Z,4.64
2019-01-04T05:43:35.153Z,4.64
2019-01-04T05:44:35.166Z,4.65
2019-01-04T05:45:35.203Z,4.65
2019-01-04T05:46:35.156Z,4.64
2019-01-04T05:47:35.156Z,4.63
2019-01-04T05:48:35.191Z,4.64
2019-01-04T05:49:35.186Z,4.63
2019-01-04T05:50:35.103Z,4.63
2019-01-04T05:51:35.249Z,4.64
2019-01-04T05:52:35.383Z,4.63
2019-01-04T05:53:35.264Z,4.64
2019-01-04T05:54:35.104Z,4.64
2019-01-04T05:55:35.164Z,4.66
2019-01-04T05:56:35.256Z,4.66
2019-01-04T05:57:35.100Z,4.64
2019-01-04T05:58:35.148Z,4.65
2019-01-04T05:59:35.863Z,4.64
2019-01-04T06:00:35.182Z,4.65
2019-01-04T06:01:35.208Z,4.65
2019-01-04T06:02:35.091Z,4.66
2019-01-04T06:03:35.018Z,4.67
2019-01-04T06:04:35.244Z,4.66
2019-01-04T06:05:35.102Z,4.67
2019-01-04T06:06:35.486Z,4.66
2019-01-04T06:07:35.227Z,4.67
2019-01-04T06:08:35.190Z,4.66
2019-01-04T06:09:35.385Z,4.66
2019-01-04T06:10:35.195Z,4.68
2019-01-04T06:11:35.312Z,4.68
2019-01-04T06:12:35.188Z,4.68
2019-01-04T06:13:35.298Z,4.67
2019-01-04T06:14:35.422Z,4.66
2019-01-04T06:15:35.174Z,4.68
2019-01-04T06:16:35.180Z,4.68
2019-01-04T06:17:35.221Z,4.68
2019-01-04T06:18:35.010Z,4.67
2019-01-04T06:19:35.221Z,4.68
2019-01-04T06:20:35.858Z,4.68
2019-01-04T06:21:34.993Z,4.68
2019-01-04T06:22:35.253Z,4.67
2019-01-04T06:23:35.896Z,4.68
2019-01-04T06:24:35.735Z,4.67
2019-01-04T06:25:35.207Z,4.68
2019-01-04T06:26:34.997Z,4.67
2019-01-04T06:27:35.872Z,4.67
2019-01-04T06:28:35.397Z,4.67
2019-01-04T06:29:35.235Z,4.67
2019-01-04T06:30:34.996Z,4.66
2019-01-04T06:31:35.016Z,4.67
2019-01-04T06:32:35.683Z,4.66
2019-01-04T06:33:35.436Z,4.66
2019-01-04T06:34:35.085Z,4.67
2019-01-04T06:35:35.281Z,4.67
2019-01-04T06:36:35.254Z,4.65
2019-01-04T06:37:35.039Z,4.65
2019-01-04T06:38:35.176Z,4.66
2019-01-04T06:39:35.201Z,4.66
2019-01-04T06:40:34.979Z,4.66
2019-01-04T06:41:35.214Z,4.65
2019-01-04T06:42:35.283Z,4.64
2019-01-04T06:43:35.386Z,4.64
2019-01-04T06:44:34.974Z,4.65
2019-01-04T06:45:35.292Z,4.64
2019-01-04T06:46:35.800Z,4.65
2019-01-04T06:47:35.155Z,4.65
2019-01-04T06:48:35.163Z,4.65
2019-01-04T06:49:35.133Z,4.64
2019-01-04T06:50:35.333Z,4.64
2019-01-04T06:51:35.359Z,4.64
2019-01-04T06:52:35.152Z,4.64
2019-01-04T06:53:35.278Z,4.64
2019-01-04T06:54:35.149Z,4.63
2019-01-04T06:55:35.360Z,4.63
2019-01-04T06:56:35.115Z,4.63
2019-01-04T06:57:35.132Z,4.64
2019-01-04T06:58:35.153Z,4.63
2019-01-04T06:59:35.175Z,4.63
2019-01-04T07:00:35.818Z,4.63
2019-01-04T07:01:35.064Z,4.63
2019-01-04T07:02:35.079Z,4.63
2019-01-04T07:03:35.343Z,4.63
2019-01-04T07:04:35.162Z,4.62
2019-01-04T07:05:35.233Z,4.63
2019-01-04T07:06:35.035Z,4.63
2019-01-04T07:07:35.073Z,4.62
2019-01-04T07:08:34.997Z,4.62
2019-01-04T07:09:35.131Z,4.62
2019-01-04T07:10:35.135Z,4.62
2019-01-04T07:11:34.973Z,4.63
2019-01-04T07:12:35.106Z,4.62
2019-01-04T07:13:35.227Z,4.63
2019-01-04T07:14:35.055Z,4.64
2019-01-04T07:15:35.387Z,4.61
2019-01-04T07:16:35.033Z,4.61
2019-01-04T07:17:34.914Z,4.62
2019-01-04T07:18:35.075Z,4.62
2019-01-04T07:19:34.900Z,4.63
2019-01-04T07:20:35.115Z,4.62
2019-01-04T07:21:35.098Z,4.61
2019-01-04T07:22:35.161Z,4.6
2019-01-04T07:23:35.053Z,4.6
2019-01-04T07:24:35.086Z,4.61
2019-01-04T07:25:34.907Z,4.61
2019-01-04T07:26:35.200Z,4.62
2019-01-04T07:27:35.162Z,4.61
2019-01-04T07:28:35.115Z,4.6
2019-01-04T07:29:35.125Z,4.6
2019-01-04T07:30:34.994Z,4.6
2019-01-04T07:31:35.269Z,4.61
2019-01-04T07:32:34.973Z,4.6
2019-01-04T07:33:35.221Z,4.61
2019-01-04T07:34:35.023Z,4.6
2019-01-04T07:35:35.142Z,4.6
2019-01-04T07:36:35.120Z,4.6
2019-01-04T07:37:35.708Z,4.6
2019-01-04T07:38:35.726Z,4.61
2019-01-04T07:39:34.904Z,4.61
2019-01-04T07:40:34.907Z,4.62
2019-01-04T07:41:35.588Z,4.63
2019-01-04T07:42:35.197Z,4.64
2019-01-04T07:43:35.037Z,4.64
2019-01-04T07:44:35.053Z,4.65
2019-01-04T07:45:35.227Z,4.65
2019-01-04T07:46:34.888Z,4.65
2019-01-04T07:47:35.132Z,4.63
2019-01-04T07:48:35.196Z,4.61
2019-01-04T07:49:34.907Z,4.61
2019-01-04T07:50:35.124Z,4.63
2019-01-04T07:51:35.261Z,4.64
2019-01-04T07:52:34.934Z,4.62
2019-01-04T07:53:35.039Z,4.62
2019-01-04T07:54:34.960Z,4.63
2019-01-04T07:55:35.089Z,4.66
2019-01-04T07:56:34.950Z,4.63
2019-01-04T07:57:35.053Z,4.61
2019-01-04T07:58:35.280Z,4.61
2019-01-04T07:59:34.895Z,4.62
2019-01-04T08:00:35.207Z,4.62
2019-01-04T08:01:35.075Z,4.63
2019-01-04T08:02:35.113Z,4.66
2019-01-04T08:03:35.035Z,4.65
2019-01-04T08:04:34.911Z,4.63
2019-01-04T08:05:34.902Z,4.63
2019-01-04T08:06:34.955Z,4.64
2019-01-04T08:07:34.907Z,4.62
2019-01-04T08:08:34.854Z,4.62
2019-01-04T08:09:35.132Z,4.62
2019-01-04T08:10:34.971Z,4.62
2019-01-04T08:11:35.670Z,4.63
2019-01-04T08:12:34.849Z,4.62
2019-01-04T08:13:35.281Z,4.64
2019-01-04T08:14:34.901Z,4.63
2019-01-04T08:15:35.063Z,4.63
2019-01-04T08:16:35.161Z,4.65
2019-01-04T08:17:35.060Z,4.66
2019-01-04T08:18:35.063Z,4.67
2019-01-04T08:19:34.956Z,4.66
2019-01-04T08:20:35.105Z,4.66
2019-01-04T08:21:34.846Z,4.63
2019-01-04T08:22:35.113Z,4.63
2019-01-04T08:23:35.174Z,4.64
2019-01-04T08:24:34.861Z,4.67
2019-01-04T08:25:35.099Z,4.67
2019-01-04T08:26:35.044Z,4.68
2019-01-04T08:27:35.697Z,4.68
2019-01-04T08:28:35.075Z,4.66
2019-01-04T08:29:34.976Z,4.66
2019-01-04T08:30:34.900Z,4.67
2019-01-04T08:31:35.070Z,4.67
2019-01-04T08:32:35.093Z,4.67
2019-01-04T08:33:35.053Z,4.67
2019-01-04T08:34:35.099Z,4.68
2019-01-04T08:35:34.863Z,4.7
2019-01-04T08:36:34.902Z,4.71
2019-01-04T08:37:34.948Z,4.74
2019-01-04T08:38:34.939Z,4.74
2019-01-04T08:39:35.185Z,4.74
2019-01-04T08:40:34.813Z,4.74
2019-01-04T08:41:34.826Z,4.73
2019-01-04T08:42:35.089Z,4.72
2019-01-04T08:43:35.211Z,4.72
2019-01-04T08:44:34.921Z,4.72
2019-01-04T08:45:35.144Z,4.72
2019-01-04T08:46:34.753Z,4.73
2019-01-04T08:47:35.195Z,4.75
2019-01-04T08:48:35.112Z,4.75
2019-01-04T08:49:34.879Z,4.74
2019-01-04T08:50:34.917Z,4.74
2019-01-04T08:51:34.899Z,4.75
2019-01-04T08:52:34.885Z,4.74
2019-01-04T08:53:34.810Z,4.75
2019-01-04T08:54:35.242Z,4.76
2019-01-04T08:55:34.895Z,4.76
2019-01-04T08:56:34.818Z,4.76
2019-01-04T08:57:34.821Z,4.75
2019-01-04T08:58:34.814Z,4.76
2019-01-04T08:59:35.565Z,4.76
2019-01-04T09:00:35.176Z,4.75
2019-01-04T09:01:34.893Z,4.76
2019-01-04T09:02:34.836Z,4.76
2019-01-04T09:03:34.779Z,4.77
2019-01-04T09:04:34.924Z,4.76
2019-01-04T09:05:34.894Z,4.77
2019-01-04T09:06:35.105Z,4.78
2019-01-04T09:07:34.924Z,4.77
2019-01-04T09:08:35.136Z,4.78
2019-01-04T09:09:34.908Z,4.77
2019-01-04T09:10:35.064Z,4.78
2019-01-04T09:11:34.925Z,4.78
2019-01-04T09:12:34.909Z,4.78
2019-01-04T09:13:35.028Z,4.76
2019-01-04T09:14:35.026Z,4.76
2019-01-04T09:15:35.137Z,4.77
2019-01-04T09:16:34.877Z,4.78
2019-01-04T09:17:34.948Z,4.79
2019-01-04T09:18:34.908Z,4.82
2019-01-04T09:19:35.234Z,4.82
2019-01-04T09:20:34.952Z,4.8
2019-01-04T09:21:35.230Z,4.8
2019-01-04T09:22:35.423Z,4.82
2019-01-04T09:23:35.259Z,4.82
2019-01-04T09:24:34.762Z,4.83
2019-01-04T09:25:34.832Z,4.83
2019-01-04T09:26:35.162Z,4.82
2019-01-04T09:27:34.877Z,4.82
2019-01-04T09:28:34.862Z,4.83
2019-01-04T09:29:34.792Z,4.83
2019-01-04T09:30:35.156Z,4.82
2019-01-04T09:31:34.724Z,4.82
2019-01-04T09:32:34.951Z,4.84
2019-01-04T09:33:34.949Z,4.84
2019-01-04T09:34:35.133Z,4.83
2019-01-04T09:35:34.830Z,4.84
2019-01-04T09:36:35.121Z,4.84
2019-01-04T09:37:34.799Z,4.84
2019-01-04T09:38:34.821Z,4.83
2019-01-04T09:39:34.902Z,4.83
2019-01-04T09:40:34.787Z,4.86
2019-01-04T09:41:35.332Z,4.86
2019-01-04T09:42:34.984Z,4.84
2019-01-04T09:43:34.731Z,4.85
2019-01-04T09:44:35.155Z,4.85
2019-01-04T09:45:35.144Z,4.86
2019-01-04T09:46:35.083Z,4.87
2019-01-04T09:47:34.733Z,4.87
2019-01-04T09:48:35.062Z,4.88
2019-01-04T09:49:34.731Z,4.88
2019-01-04T09:50:34.744Z,4.89
2019-01-04T09:51:34.897Z,4.89
2019-01-04T09:52:35.091Z,4.88
2019-01-04T09:53:34.859Z,4.87
2019-01-04T09:54:34.803Z,4.88
2019-01-04T09:55:36.873Z,4.88
2019-01-04T09:56:34.603Z,4.87
2019-01-04T09:57:35.118Z,4.89
2019-01-04T09:58:34.740Z,4.88
2019-01-04T09:59:34.923Z,4.88
2019-01-04T10:00:35.061Z,4.88
2019-01-04T10:01:35.581Z,4.88
2019-01-04T10:02:34.702Z,4.87
2019-01-04T10:03:34.689Z,4.89
2019-01-04T10:04:35.240Z,4.88
2019-01-04T10:05:34.897Z,4.89
2019-01-04T10:06:35.057Z,4.89
2019-01-04T10:07:34.909Z,4.89
2019-01-04T10:08:34.848Z,4.9
2019-01-04T10:09:35.142Z,4.9
2019-01-04T10:10:34.795Z,4.9
2019-01-04T10:11:35.546Z,4.9
2019-01-04T10:12:34.927Z,4.9
2019-01-04T10:13:34.922Z,4.91
2019-01-04T10:14:34.539Z,4.91
2019-01-04T10:15:34.657Z,4.91
2019-01-04T10:16:34.713Z,4.91
2019-01-04T10:17:34.765Z,4.9
2019-01-04T10:18:35.497Z,4.94
2019-01-04T10:19:34.781Z,4.93
2019-01-04T10:20:35.075Z,4.93
2019-01-04T10:21:35.524Z,4.91
2019-01-04T10:22:34.822Z,4.92
2019-01-04T10:23:34.753Z,4.91
2019-01-04T10:24:34.883Z,4.92
2019-01-04T10:25:34.721Z,4.91
2019-01-04T10:26:34.846Z,4.91
2019-01-04T10:27:34.674Z,4.92
2019-01-04T10:28:34.728Z,4.92
2019-01-04T10:29:34.881Z,4.91
2019-01-04T10:30:34.753Z,4.91
2019-01-04T10:31:34.705Z,4.91
2019-01-04T10:32:34.874Z,4.91
2019-01-04T10:33:34.894Z,4.9
2019-01-04T10:34:34.922Z,4.9
2019-01-04T10:35:34.704Z,4.89
2019-01-04T10:36:34.792Z,4.9
2019-01-04T10:37:34.820Z,4.9
2019-01-04T10:38:34.688Z,4.91
2019-01-04T10:39:34.642Z,4.91
2019-01-04T10:40:34.857Z,4.91
2019-01-04T10:41:34.743Z,4.89
2019-01-04T10:42:34.677Z,4.9
2019-01-04T10:43:34.843Z,4.92
2019-01-04T10:44:34.630Z,4.89
2019-01-04T10:45:34.654Z,4.92
2019-01-04T10:46:34.606Z,4.91
2019-01-04T10:47:35.133Z,4.93
2019-01-04T10:48:34.656Z,4.95
2019-01-04T10:49:34.766Z,4.93
2019-01-04T10:50:34.719Z,4.92
2019-01-04T10:51:34.613Z,4.92
2019-01-04T10:52:34.702Z,4.92
2019-01-04T10:53:34.660Z,4.93
2019-01-04T10:54:34.767Z,4.94
2019-01-04T10:55:34.675Z,4.93
2019-01-04T10:56:34.789Z,4.95
2019-01-04T10:57:35.103Z,4.95
2019-01-04T10:58:34.715Z,4.95
2019-01-04T10:59:34.765Z,4.97
2019-01-04T11:00:34.802Z,4.96
2019-01-04T11:01:34.645Z,4.96
2019-01-04T11:02:34.735Z,4.94
2019-01-04T11:03:34.952Z,4.95
2019-01-04T11:04:34.790Z,4.97
2019-01-04T11:05:34.893Z,4.97
2019-01-04T11:06:34.849Z,4.97
2019-01-04T11:07:35.167Z,4.98
2019-01-04T11:08:34.780Z,5
2019-01-04T11:09:34.583Z,5.02
2019-01-04T11:10:34.938Z,5.02
2019-01-04T11:11:34.710Z,5.02
2019-01-04T11:12:34.740Z,5.02
2019-01-04T11:13:34.679Z,5.04
2019-01-04T11:14:34.783Z,5.05
2019-01-04T11:15:35.221Z,5.06
2019-01-04T11:16:34.652Z,5.06
2019-01-04T11:17:34.930Z,5.09
2019-01-04T11:18:34.649Z,5.1
2019-01-04T11:19:34.606Z,5.08
2019-01-04T11:20:34.588Z,5.1
2019-01-04T11:21:34.727Z,5.1
2019-01-04T11:22:34.720Z,5.1
2019-01-04T11:23:34.900Z,5.1
2019-01-04T11:24:35.160Z,5.12
2019-01-04T11:25:34.617Z,5.13
2019-01-04T11:26:35.055Z,5.13
2019-01-04T11:27:35.419Z,5.14
2019-01-04T11:28:34.690Z,5.13
2019-01-04T11:29:34.647Z,5.15
2019-01-04T11:30:34.577Z,5.15
2019-01-04T11:31:35.428Z,5.17
2019-01-04T11:32:35.124Z,5.2
2019-01-04T11:33:34.875Z,5.19
2019-01-04T11:34:35.415Z,5.21
2019-01-04T11:35:34.972Z,5.21
2019-01-04T11:36:34.801Z,5.22
2019-01-04T11:37:34.904Z,5.22
2019-01-04T11:38:34.790Z,5.16
2019-01-04T11:39:34.731Z,5.19
2019-01-04T11:40:35.425Z,5.2
2019-01-04T11:41:34.617Z,5.21
2019-01-04T11:42:35.266Z,5.2
2019-01-04T11:43:34.835Z,5.21
2019-01-04T11:44:35.027Z,5.21
2019-01-04T11:45:34.808Z,5.2
2019-01-04T11:46:35.214Z,5.18
2019-01-04T11:47:34.859Z,5.2
2019-01-04T11:48:34.896Z,5.2
2019-01-04T11:49:34.857Z,5.18
2019-01-04T11:50:35.531Z,5.18
2019-01-04T11:51:34.753Z,5.19
2019-01-04T11:52:34.796Z,5.22
2019-01-04T11:53:34.862Z,5.23
2019-01-04T11:54:34.588Z,5.2
2019-01-04T11:55:34.845Z,5.2
2019-01-04T11:56:34.600Z,5.21
2019-01-04T11:57:34.900Z,5.2
2019-01-04T11:58:34.715Z,5.19
2019-01-04T11:59:34.942Z,5.2
2019-01-04T12:00:34.916Z,5.19
2019-01-04T12:01:35.419Z,5.19
2019-01-04T12:02:34.797Z,5.2
2019-01-04T12:03:34.532Z,5.18
2019-01-04T12:04:34.717Z,5.2
2019-01-04T12:05:34.849Z,5.19
2019-01-04T12:06:34.684Z,5.21
2019-01-04T12:07:34.667Z,5.21
2019-01-04T12:08:34.855Z,5.21
2019-01-04T12:09:35.114Z,5.22
2019-01-04T12:10:34.695Z,5.22
2019-01-04T12:11:34.556Z,5.21
2019-01-04T12:12:34.645Z,5.19
2019-01-04T12:13:34.495Z,5.17
2019-01-04T12:14:34.522Z,5.18
2019-01-04T12:15:34.649Z,5.2
2019-01-04T12:16:34.725Z,5.18
2019-01-04T12:17:34.590Z,5.16
2019-01-04T12:18:34.553Z,5.19
2019-01-04T12:19:34.682Z,5.19
2019-01-04T12:20:34.574Z,5.21
2019-01-04T12:21:34.840Z,5.2
2019-01-04T12:22:34.577Z,5.2
2019-01-04T12:23:34.929Z,5.19
2019-01-04T12:24:34.666Z,5.2
2019-01-04T12:25:34.638Z,5.18
2019-01-04T12:26:34.537Z,5.18
2019-01-04T12:27:34.568Z,5.21
2019-01-04T12:28:34.591Z,5.22
2019-01-04T12:29:34.738Z,5.22
2019-01-04T12:30:34.573Z,5.21
2019-01-04T12:31:34.511Z,5.21
2019-01-04T12:32:34.604Z,5.21
2019-01-04T12:33:34.722Z,5.19
2019-01-04T12:34:34.572Z,5.19
2019-01-04T12:35:34.503Z,5.2
2019-01-04T12:36:34.479Z,5.19
2019-01-04T12:37:34.535Z,5.19
2019-01-04T12:38:34.556Z,5.17
2019-01-04T12:39:34.642Z,5.18
2019-01-04T12:40:34.758Z,5.19
2019-01-04T12:41:34.480Z,5.2
2019-01-04T12:42:34.873Z,5.2
2019-01-04T12:43:34.563Z,5.19
2019-01-04T12:44:34.466Z,5.19
2019-01-04T12:45:34.942Z,5.16
2019-01-04T12:46:34.666Z,5.17
2019-01-04T12:47:35.336Z,5.16
2019-01-04T12:48:34.732Z,5.17
2019-01-04T12:49:34.878Z,5.17
2019-01-04T12:50:34.743Z,5.18
2019-01-04T12:51:34.586Z,5.2
2019-01-04T12:52:34.883Z,5.2
2019-01-04T12:53:34.530Z,5.19
2019-01-04T12:54:34.795Z,5.15
2019-01-04T12:55:34.567Z,5.14
2019-01-04T12:56:34.688Z,5.15
2019-01-04T12:57:34.640Z,5.16
2019-01-04T12:58:34.668Z,5.16
2019-01-04T12:59:34.641Z,5.15
2019-01-04T13:00:34.614Z,5.17
2019-01-04T13:01:34.574Z,5.18
2019-01-04T13:02:34.457Z,5.2
2019-01-04T13:03:34.634Z,5.17
2019-01-04T13:04:35.136Z,5.15
2019-01-04T13:05:34.787Z,5.16
2019-01-04T13:06:34.469Z,5.16
2019-01-04T13:07:34.597Z,5.16
2019-01-04T13:08:34.723Z,5.18
2019-01-04T13:09:34.763Z,5.2
2019-01-04T13:10:36.042Z,5.2
2019-01-04T13:11:34.794Z,5.2
2019-01-04T13:12:34.693Z,5.21
2019-01-04T13:13:34.909Z,5.21
2019-01-04T13:14:34.734Z,5.22
2019-01-04T13:15:34.878Z,5.22
2019-01-04T13:16:34.453Z,5.21
2019-01-04T13:17:34.808Z,5.21
2019-01-04T13:18:34.758Z,5.19
2019-01-04T13:19:34.817Z,5.17
2019-01-04T13:20:34.806Z,5.17
2019-01-04T13:21:34.979Z,5.18